PWSweather.com
Personal Weather Stations
Station Observations
RIORANCHO
Corrales Heights, Rio Rancho, NM 87124

Corrales HeightsRio Rancho, NM 87124

Lat: 35.241928, Lon: -106.647095

Elevation: 5297

Station Type: Davis Vantage Pro 2 Plus

http://www.weatherriorancho.com

High Low Average
Temperature 54.3°F12.4°C 18.2°F-7.7°C 35.4°F1.9°C
Dew Point 21.1°F-6.1°C 11.1°F-11.6°C 15.7°F-9.1°C
Winds 3.5 mph 5.6 kmh Calm Calm Calm SSECalm SSE
Wind Gusts 8.1 mph13.0 kmh -- 1.0 mph1.6 kmh
Humidity 77% 25% 48%
Pressure 30.33 in1027.1 mb 30.17 in1021.7 mb -
Precipitation 0.00 in0.0 mm - -
Hour Temp Dew Point Humidity Winds Wind Gusts Pressure Precip Precip Rate Daily Precip Total
12:00 AM 25.1°F-3.8°C 13.5°F-10.3°C 61% Calm Calm -- 30.31 in1026.4 mb - 0.00 in0.0 mm 0.00 in0.0 mm
12:10 AM 24.7°F-4.1°C 13.5°F-10.3°C 62% Calm Calm -- 30.31 in1026.4 mb - 0.00 in0.0 mm 0.00 in0.0 mm
12:20 AM 24.5°F-4.2°C 13.7°F-10.2°C 63% Calm Calm -- 30.31 in1026.4 mb - 0.00 in0.0 mm 0.00 in0.0 mm
12:30 AM 24.3°F-4.3°C 13.5°F-10.3°C 63% Calm Calm -- 30.31 in1026.4 mb - 0.00 in0.0 mm 0.00 in0.0 mm
12:40 AM 24.0°F-4.4°C 13.6°F-10.2°C 64% Calm Calm -- 30.31 in1026.4 mb - 0.00 in0.0 mm 0.00 in0.0 mm
12:50 AM 23.9°F-4.5°C 13.5°F-10.3°C 64% Calm Calm -- 30.31 in1026.4 mb - 0.00 in0.0 mm 0.00 in0.0 mm
01:00 AM 23.6°F-4.7°C 13.2°F-10.4°C 64% Calm Calm -- 30.31 in1026.4 mb - 0.00 in0.0 mm 0.00 in0.0 mm
01:10 AM 23.2°F-4.9°C 13.2°F-10.4°C 65% Calm Calm -- 30.31 in1026.4 mb - 0.00 in0.0 mm 0.00 in0.0 mm
01:20 AM 23.1°F-4.9°C 13.4°F-10.3°C 66% Calm Calm -- 30.31 in1026.4 mb - 0.00 in0.0 mm 0.00 in0.0 mm
01:30 AM 23.4°F-4.8°C 14.1°F-9.9°C 67% Calm Calm 1.2 mph1.9 kmh 30.31 in1026.4 mb - 0.00 in0.0 mm 0.00 in0.0 mm
01:40 AM 23.8°F-4.6°C 14.1°F-9.9°C 66% Calm Calm 1.2 mph1.9 kmh 30.32 in1026.8 mb - 0.00 in0.0 mm 0.00 in0.0 mm
01:50 AM 24.1°F-4.4°C 14.0°F-10.0°C 65% Calm Calm -- 30.32 in1026.8 mb - 0.00 in0.0 mm 0.00 in0.0 mm
02:00 AM 24.2°F-4.3°C 14.1°F-9.9°C 65% Calm Calm -- 30.32 in1026.8 mb - 0.00 in0.0 mm 0.00 in0.0 mm
02:10 AM 24.3°F-4.3°C 14.3°F-9.8°C 65% Calm Calm -- 30.32 in1026.8 mb - 0.00 in0.0 mm 0.00 in0.0 mm
02:20 AM 24.5°F-4.2°C 14.4°F-9.8°C 65% Calm Calm -- 30.32 in1026.8 mb - 0.00 in0.0 mm 0.00 in0.0 mm
02:30 AM 24.5°F-4.2°C 14.4°F-9.8°C 65% Calm Calm 1.2 mph1.9 kmh 30.32 in1026.8 mb - 0.00 in0.0 mm 0.00 in0.0 mm
02:40 AM 24.5°F-4.2°C 14.4°F-9.8°C 65% Calm Calm -- 30.32 in1026.8 mb - 0.00 in0.0 mm 0.00 in0.0 mm
02:50 AM 24.3°F-4.3°C 13.9°F-10.1°C 64% Calm Calm -- 30.32 in1026.8 mb - 0.00 in0.0 mm 0.00 in0.0 mm
03:00 AM 24.0°F-4.4°C 13.6°F-10.2°C 64% Calm Calm -- 30.32 in1026.8 mb - 0.00 in0.0 mm 0.00 in0.0 mm
03:10 AM 23.5°F-4.7°C 13.5°F-10.3°C 65% Calm Calm -- 30.32 in1026.8 mb - 0.00 in0.0 mm 0.00 in0.0 mm
03:20 AM 23.1°F-4.9°C 13.1°F-10.5°C 65% Calm Calm -- 30.31 in1026.4 mb - 0.00 in0.0 mm 0.00 in0.0 mm
03:30 AM 22.7°F-5.2°C 13.3°F-10.4°C 67% Calm Calm -- 30.31 in1026.4 mb - 0.00 in0.0 mm 0.00 in0.0 mm
03:40 AM 22.2°F-5.4°C 12.9°F-10.6°C 67% Calm Calm -- 30.31 in1026.4 mb - 0.00 in0.0 mm 0.00 in0.0 mm
03:50 AM 21.9°F-5.6°C 12.6°F-10.8°C 67% Calm Calm 1.2 mph1.9 kmh 30.30 in1026.1 mb - 0.00 in0.0 mm 0.00 in0.0 mm
04:00 AM 21.6°F-5.8°C 12.7°F-10.7°C 68% Calm Calm -- 30.30 in1026.1 mb - 0.00 in0.0 mm 0.00 in0.0 mm
04:10 AM 21.9°F-5.6°C 13.3°F-10.4°C 69% Calm Calm 3.5 mph5.6 kmh 30.30 in1026.1 mb - 0.00 in0.0 mm 0.00 in0.0 mm
04:20 AM 22.8°F-5.1°C 14.5°F-9.7°C 70% Calm Calm 2.3 mph3.7 kmh 30.30 in1026.1 mb - 0.00 in0.0 mm 0.00 in0.0 mm
04:30 AM 23.1°F-4.9°C 14.4°F-9.8°C 69% 1.2 mph WNW1.9 kmh WNW 2.3 mph3.7 kmh 30.30 in1026.1 mb - 0.00 in0.0 mm 0.00 in0.0 mm
04:40 AM 23.0°F-5.0°C 14.0°F-10.0°C 68% Calm Calm 1.2 mph1.9 kmh 30.29 in1025.7 mb - 0.00 in0.0 mm 0.00 in0.0 mm
04:50 AM 22.6°F-5.2°C 13.6°F-10.2°C 68% Calm Calm -- 30.29 in1025.7 mb - 0.00 in0.0 mm 0.00 in0.0 mm
05:00 AM 22.3°F-5.4°C 13.7°F-10.2°C 69% Calm Calm -- 30.29 in1025.7 mb - 0.00 in0.0 mm 0.00 in0.0 mm
05:10 AM 22.1°F-5.5°C 13.5°F-10.3°C 69% Calm Calm -- 30.29 in1025.7 mb - 0.00 in0.0 mm 0.00 in0.0 mm
05:20 AM 21.8°F-5.7°C 13.5°F-10.3°C 70% Calm Calm -- 30.29 in1025.7 mb - 0.00 in0.0 mm 0.00 in0.0 mm
05:30 AM 21.3°F-5.9°C 13.0°F-10.6°C 70% Calm Calm -- 30.29 in1025.7 mb - 0.00 in0.0 mm 0.00 in0.0 mm
05:40 AM 20.8°F-6.2°C 12.6°F-10.8°C 70% Calm Calm -- 30.29 in1025.7 mb - 0.00 in0.0 mm 0.00 in0.0 mm
05:50 AM 20.5°F-6.4°C 12.3°F-10.9°C 70% Calm Calm -- 30.29 in1025.7 mb - 0.00 in0.0 mm 0.00 in0.0 mm
06:00 AM 20.1°F-6.6°C 11.9°F-11.2°C 70% Calm Calm -- 30.29 in1025.7 mb - 0.00 in0.0 mm 0.00 in0.0 mm
06:10 AM 19.7°F-6.8°C 11.5°F-11.4°C 70% Calm Calm -- 30.29 in1025.7 mb - 0.00 in0.0 mm 0.00 in0.0 mm
06:20 AM 19.2°F-7.1°C 11.3°F-11.5°C 71% Calm Calm -- 30.29 in1025.7 mb - 0.00 in0.0 mm 0.00 in0.0 mm
06:30 AM 19.0°F-7.2°C 11.1°F-11.6°C 71% Calm Calm -- 30.29 in1025.7 mb - 0.00 in0.0 mm 0.00 in0.0 mm
06:40 AM 18.6°F-7.4°C 11.1°F-11.6°C 72% Calm Calm -- 30.29 in1025.7 mb - 0.00 in0.0 mm 0.00 in0.0 mm
06:50 AM 18.4°F-7.6°C 11.2°F-11.6°C 73% Calm Calm -- 30.29 in1025.7 mb - 0.00 in0.0 mm 0.00 in0.0 mm
07:00 AM 18.3°F-7.6°C 11.4°F-11.4°C 74% Calm Calm -- 30.29 in1025.7 mb - 0.00 in0.0 mm 0.00 in0.0 mm
07:10 AM 18.2°F-7.7°C 11.3°F-11.5°C 74% Calm Calm -- 30.30 in1026.1 mb - 0.00 in0.0 mm 0.00 in0.0 mm
07:20 AM 18.3°F-7.6°C 12.0°F-11.1°C 76% Calm Calm -- 30.29 in1025.7 mb - 0.00 in0.0 mm 0.00 in0.0 mm
07:30 AM 18.4°F-7.6°C 12.1°F-11.1°C 76% Calm Calm -- 30.30 in1026.1 mb - 0.00 in0.0 mm 0.00 in0.0 mm
07:40 AM 18.4°F-7.6°C 12.1°F-11.1°C 76% Calm Calm -- 30.30 in1026.1 mb - 0.00 in0.0 mm 0.00 in0.0 mm
07:50 AM 18.5°F-7.5°C 12.2°F-11.0°C 76% Calm Calm -- 30.30 in1026.1 mb - 0.00 in0.0 mm 0.00 in0.0 mm
08:00 AM 19.7°F-6.8°C 13.6°F-10.2°C 77% Calm Calm -- 30.30 in1026.1 mb - 0.00 in0.0 mm 0.00 in0.0 mm
08:10 AM 21.0°F-6.1°C 14.6°F-9.7°C 76% Calm Calm -- 30.30 in1026.1 mb - 0.00 in0.0 mm 0.00 in0.0 mm
08:20 AM 22.8°F-5.1°C 15.7°F-9.1°C 74% Calm Calm 1.2 mph1.9 kmh 30.30 in1026.1 mb - 0.00 in0.0 mm 0.00 in0.0 mm
08:30 AM 24.4°F-4.2°C 15.7°F-9.1°C 69% 1.2 mph NW1.9 kmh NW 1.2 mph1.9 kmh 30.31 in1026.4 mb - 0.00 in0.0 mm 0.00 in0.0 mm
08:40 AM 25.2°F-3.8°C 15.4°F-9.2°C 66% Calm Calm 1.2 mph1.9 kmh 30.30 in1026.1 mb - 0.00 in0.0 mm 0.00 in0.0 mm
08:50 AM 26.1°F-3.3°C 15.2°F-9.3°C 63% 1.2 mph NNW1.9 kmh NNW 2.3 mph3.7 kmh 30.32 in1026.8 mb - 0.00 in0.0 mm 0.00 in0.0 mm
09:00 AM 27.4°F-2.6°C 16.0°F-8.9°C 62% Calm Calm 2.3 mph3.7 kmh 30.32 in1026.8 mb - 0.00 in0.0 mm 0.00 in0.0 mm
09:10 AM 28.5°F-1.9°C 16.0°F-8.9°C 59% Calm Calm 2.3 mph3.7 kmh 30.32 in1026.8 mb - 0.00 in0.0 mm 0.00 in0.0 mm
09:20 AM 29.2°F-1.6°C 15.8°F-9.0°C 57% Calm Calm 2.3 mph3.7 kmh 30.32 in1026.8 mb - 0.00 in0.0 mm 0.00 in0.0 mm
09:30 AM 29.6°F-1.3°C 15.4°F-9.2°C 55% Calm Calm 2.3 mph3.7 kmh 30.33 in1027.1 mb - 0.00 in0.0 mm 0.00 in0.0 mm
09:40 AM 30.4°F-0.9°C 15.7°F-9.1°C 54% Calm Calm 1.2 mph1.9 kmh 30.33 in1027.1 mb - 0.00 in0.0 mm 0.00 in0.0 mm
09:50 AM 31.8°F-0.1°C 16.1°F-8.8°C 52% Calm Calm 1.2 mph1.9 kmh 30.33 in1027.1 mb - 0.00 in0.0 mm 0.00 in0.0 mm
10:00 AM 32.8°F0.4°C 16.2°F-8.8°C 50% Calm Calm -- 30.33 in1027.1 mb - 0.00 in0.0 mm 0.00 in0.0 mm
10:10 AM 35.0°F1.7°C 17.7°F-7.9°C 49% Calm Calm -- 30.32 in1026.8 mb - 0.00 in0.0 mm 0.00 in0.0 mm
10:20 AM 36.6°F2.6°C 17.2°F-8.2°C 45% Calm Calm -- 30.32 in1026.8 mb - 0.00 in0.0 mm 0.00 in0.0 mm
10:30 AM 37.2°F2.9°C 17.2°F-8.2°C 44% Calm Calm -- 30.32 in1026.8 mb - 0.00 in0.0 mm 0.00 in0.0 mm
10:40 AM 38.3°F3.5°C 17.2°F-8.2°C 42% Calm Calm -- 30.32 in1026.8 mb - 0.00 in0.0 mm 0.00 in0.0 mm
10:50 AM 39.2°F4.0°C 16.9°F-8.4°C 40% Calm Calm -- 30.31 in1026.4 mb - 0.00 in0.0 mm 0.00 in0.0 mm
11:00 AM 39.6°F4.2°C 17.2°F-8.2°C 40% Calm Calm -- 30.31 in1026.4 mb - 0.00 in0.0 mm 0.00 in0.0 mm
11:10 AM 41.2°F5.1°C 18.0°F-7.8°C 39% Calm Calm -- 30.30 in1026.1 mb - 0.00 in0.0 mm 0.00 in0.0 mm
11:20 AM 41.9°F5.5°C 18.1°F-7.7°C 38% Calm Calm -- 30.30 in1026.1 mb - 0.00 in0.0 mm 0.00 in0.0 mm
11:30 AM 43.1°F6.2°C 18.5°F-7.5°C 37% Calm Calm -- 30.29 in1025.7 mb - 0.00 in0.0 mm 0.00 in0.0 mm
11:40 AM 43.7°F6.5°C 19.7°F-6.8°C 38% Calm Calm -- 30.28 in1025.4 mb - 0.00 in0.0 mm 0.00 in0.0 mm
11:50 AM 45.2°F7.3°C 19.2°F-7.1°C 35% Calm Calm -- 30.27 in1025.1 mb - 0.00 in0.0 mm 0.00 in0.0 mm
12:00 PM 46.5°F8.1°C 19.6°F-6.9°C 34% Calm Calm -- 30.26 in1024.7 mb - 0.00 in0.0 mm 0.00 in0.0 mm
12:10 PM 47.4°F8.6°C 19.7°F-6.8°C 33% Calm Calm -- 30.25 in1024.4 mb - 0.00 in0.0 mm 0.00 in0.0 mm
12:20 PM 50.3°F10.2°C 20.8°F-6.2°C 31% Calm Calm -- 30.25 in1024.4 mb - 0.00 in0.0 mm 0.00 in0.0 mm
12:30 PM 48.3°F9.1°C 19.8°F-6.8°C 32% Calm Calm -- 30.24 in1024.0 mb - 0.00 in0.0 mm 0.00 in0.0 mm
12:40 PM 50.7°F10.4°C 20.4°F-6.4°C 30% Calm Calm -- 30.23 in1023.7 mb - 0.00 in0.0 mm 0.00 in0.0 mm
12:50 PM 49.4°F9.7°C 19.2°F-7.1°C 30% Calm Calm -- 30.23 in1023.7 mb - 0.00 in0.0 mm 0.00 in0.0 mm
01:00 PM 50.9°F10.5°C 20.5°F-6.4°C 30% Calm Calm -- 30.22 in1023.4 mb - 0.00 in0.0 mm 0.00 in0.0 mm
01:10 PM 51.5°F10.8°C 21.1°F-6.1°C 30% Calm Calm -- 30.22 in1023.4 mb - 0.00 in0.0 mm 0.00 in0.0 mm
01:20 PM 52.1°F11.2°C 20.8°F-6.2°C 29% Calm Calm -- 30.21 in1023.0 mb - 0.00 in0.0 mm 0.00 in0.0 mm
01:30 PM 52.1°F11.2°C 20.7°F-6.3°C 29% Calm Calm -- 30.21 in1023.0 mb - 0.00 in0.0 mm 0.00 in0.0 mm
01:40 PM 51.4°F10.8°C 20.2°F-6.6°C 29% Calm Calm -- 30.20 in1022.7 mb - 0.00 in0.0 mm 0.00 in0.0 mm
01:50 PM 50.5°F10.3°C 19.4°F-7.0°C 29% 1.2 mph SE1.9 kmh SE 2.3 mph3.7 kmh 30.20 in1022.7 mb - 0.00 in0.0 mm 0.00 in0.0 mm
02:00 PM 50.3°F10.2°C 20.0°F-6.7°C 30% Calm Calm 3.5 mph5.6 kmh 30.19 in1022.4 mb - 0.00 in0.0 mm 0.00 in0.0 mm
02:10 PM 51.0°F10.6°C 19.8°F-6.8°C 29% Calm Calm 3.5 mph5.6 kmh 30.19 in1022.4 mb - 0.00 in0.0 mm 0.00 in0.0 mm
02:20 PM 51.3°F10.7°C 20.0°F-6.7°C 29% Calm Calm 1.2 mph1.9 kmh 30.19 in1022.4 mb - 0.00 in0.0 mm 0.00 in0.0 mm
02:30 PM 51.5°F10.8°C 20.2°F-6.6°C 29% 1.2 mph SE1.9 kmh SE 4.6 mph7.4 kmh 30.18 in1022.0 mb - 0.00 in0.0 mm 0.00 in0.0 mm
02:40 PM 52.5°F11.4°C 20.3°F-6.5°C 28% 1.2 mph SSE1.9 kmh SSE 3.5 mph5.6 kmh 30.18 in1022.0 mb - 0.00 in0.0 mm 0.00 in0.0 mm
02:50 PM 52.0°F11.1°C 19.9°F-6.7°C 28% 3.5 mph SE5.6 kmh SE 6.9 mph11.1 kmh 30.18 in1022.0 mb - 0.00 in0.0 mm 0.00 in0.0 mm
03:00 PM 52.8°F11.6°C 19.7°F-6.8°C 27% 1.2 mph SSE1.9 kmh SSE 8.1 mph13.0 kmh 30.18 in1022.0 mb - 0.00 in0.0 mm 0.00 in0.0 mm
03:10 PM 52.9°F11.6°C 19.8°F-6.8°C 27% 1.2 mph S1.9 kmh S 4.6 mph7.4 kmh 30.18 in1022.0 mb - 0.00 in0.0 mm 0.00 in0.0 mm
03:20 PM 53.5°F11.9°C 19.4°F-7.0°C 26% Calm Calm 2.3 mph3.7 kmh 30.18 in1022.0 mb - 0.00 in0.0 mm 0.00 in0.0 mm
03:30 PM 54.3°F12.4°C 19.1°F-7.2°C 25% 3.5 mph SE5.6 kmh SE 5.8 mph9.3 kmh 30.17 in1021.7 mb - 0.00 in0.0 mm 0.00 in0.0 mm
03:40 PM 53.8°F12.1°C 19.6°F-6.9°C 26% 1.2 mph SSE1.9 kmh SSE 6.9 mph11.1 kmh 30.17 in1021.7 mb - 0.00 in0.0 mm 0.00 in0.0 mm
03:50 PM 53.9°F12.2°C 18.8°F-7.3°C 25% Calm Calm 3.5 mph5.6 kmh 30.17 in1021.7 mb - 0.00 in0.0 mm 0.00 in0.0 mm
04:00 PM 53.9°F12.2°C 18.8°F-7.3°C 25% 1.2 mph SSE1.9 kmh SSE 2.3 mph3.7 kmh 30.17 in1021.7 mb - 0.00 in0.0 mm 0.00 in0.0 mm
04:10 PM 54.1°F12.3°C 19.0°F-7.2°C 25% 2.3 mph SSE3.7 kmh SSE 3.5 mph5.6 kmh 30.17 in1021.7 mb - 0.00 in0.0 mm 0.00 in0.0 mm
04:20 PM 53.6°F12.0°C 18.6°F-7.4°C 25% 1.2 mph SSE1.9 kmh SSE 2.3 mph3.7 kmh 30.17 in1021.7 mb - 0.00 in0.0 mm 0.00 in0.0 mm
04:30 PM 53.0°F11.7°C 18.1°F-7.7°C 25% 1.2 mph SSE1.9 kmh SSE 3.5 mph5.6 kmh 30.17 in1021.7 mb - 0.00 in0.0 mm 0.00 in0.0 mm
04:40 PM 52.6°F11.4°C 17.7°F-7.9°C 25% 1.2 mph SSE1.9 kmh SSE 3.5 mph5.6 kmh 30.17 in1021.7 mb - 0.00 in0.0 mm 0.00 in0.0 mm
04:50 PM 52.5°F11.4°C 17.6°F-8.0°C 25% Calm Calm -- 30.17 in1021.7 mb - 0.00 in0.0 mm 0.00 in0.0 mm
05:00 PM 52.1°F11.2°C 17.3°F-8.2°C 25% Calm Calm 3.5 mph5.6 kmh 30.17 in1021.7 mb - 0.00 in0.0 mm 0.00 in0.0 mm
05:10 PM 51.6°F10.9°C 16.9°F-8.4°C 25% Calm Calm -- 30.17 in1021.7 mb - 0.00 in0.0 mm 0.00 in0.0 mm
05:20 PM 50.9°F10.5°C 17.2°F-8.2°C 26% Calm Calm -- 30.17 in1021.7 mb - 0.00 in0.0 mm 0.00 in0.0 mm
05:30 PM 50.3°F10.2°C 16.7°F-8.5°C 26% Calm Calm -- 30.17 in1021.7 mb - 0.00 in0.0 mm 0.00 in0.0 mm
05:40 PM 49.9°F9.9°C 16.3°F-8.7°C 26% Calm Calm -- 30.17 in1021.7 mb - 0.00 in0.0 mm 0.00 in0.0 mm
05:50 PM 49.4°F9.7°C 16.8°F-8.4°C 27% Calm Calm 1.2 mph1.9 kmh 30.17 in1021.7 mb - 0.00 in0.0 mm 0.00 in0.0 mm
06:00 PM 48.9°F9.4°C 16.3°F-8.7°C 27% Calm Calm -- 30.17 in1021.7 mb - 0.00 in0.0 mm 0.00 in0.0 mm
06:10 PM 48.3°F9.1°C 15.8°F-9.0°C 27% Calm Calm -- 30.18 in1022.0 mb - 0.00 in0.0 mm 0.00 in0.0 mm
06:20 PM 47.6°F8.7°C 16.1°F-8.8°C 28% Calm Calm -- 30.18 in1022.0 mb - 0.00 in0.0 mm 0.00 in0.0 mm
06:30 PM 47.0°F8.3°C 15.5°F-9.2°C 28% Calm Calm 1.2 mph1.9 kmh 30.18 in1022.0 mb - 0.00 in0.0 mm 0.00 in0.0 mm
06:40 PM 46.3°F7.9°C 15.8°F-9.0°C 29% Calm Calm -- 30.18 in1022.0 mb - 0.00 in0.0 mm 0.00 in0.0 mm
06:50 PM 45.6°F7.6°C 15.1°F-9.4°C 29% Calm Calm -- 30.18 in1022.0 mb - 0.00 in0.0 mm 0.00 in0.0 mm
07:00 PM 44.5°F6.9°C 14.9°F-9.5°C 30% Calm Calm -- 30.18 in1022.0 mb - 0.00 in0.0 mm 0.00 in0.0 mm
07:10 PM 43.7°F6.5°C 15.0°F-9.4°C 31% Calm Calm -- 30.18 in1022.0 mb - 0.00 in0.0 mm 0.00 in0.0 mm
07:20 PM 42.6°F5.9°C 14.8°F-9.6°C 32% Calm Calm -- 30.18 in1022.0 mb - 0.00 in0.0 mm 0.00 in0.0 mm
07:30 PM 42.1°F5.6°C 15.0°F-9.4°C 33% Calm Calm -- 30.18 in1022.0 mb - 0.00 in0.0 mm 0.00 in0.0 mm
07:40 PM 41.6°F5.3°C 14.6°F-9.7°C 33% Calm Calm -- 30.18 in1022.0 mb - 0.00 in0.0 mm 0.00 in0.0 mm
07:50 PM 41.0°F5.0°C 14.7°F-9.6°C 34% Calm Calm -- 30.18 in1022.0 mb - 0.00 in0.0 mm 0.00 in0.0 mm
08:00 PM 40.4°F4.7°C 14.2°F-9.9°C 34% Calm Calm -- 30.18 in1022.0 mb - 0.00 in0.0 mm 0.00 in0.0 mm
08:10 PM 39.8°F4.3°C 14.4°F-9.8°C 35% Calm Calm -- 30.18 in1022.0 mb - 0.00 in0.0 mm 0.00 in0.0 mm
08:20 PM 39.2°F4.0°C 14.4°F-9.8°C 36% Calm Calm -- 30.18 in1022.0 mb - 0.00 in0.0 mm 0.00 in0.0 mm
08:30 PM 38.5°F3.6°C 14.5°F-9.7°C 37% Calm Calm 1.2 mph1.9 kmh 30.18 in1022.0 mb - 0.00 in0.0 mm 0.00 in0.0 mm
08:40 PM 38.0°F3.3°C 14.6°F-9.7°C 38% Calm Calm 1.2 mph1.9 kmh 30.18 in1022.0 mb - 0.00 in0.0 mm 0.00 in0.0 mm
08:50 PM 37.5°F3.1°C 15.3°F-9.3°C 40% Calm Calm 1.2 mph1.9 kmh 30.18 in1022.0 mb - 0.00 in0.0 mm 0.00 in0.0 mm
09:00 PM 36.9°F2.7°C 15.4°F-9.2°C 41% Calm Calm -- 30.18 in1022.0 mb - 0.00 in0.0 mm 0.00 in0.0 mm
09:10 PM 36.5°F2.5°C 15.0°F-9.4°C 41% Calm Calm -- 30.18 in1022.0 mb - 0.00 in0.0 mm 0.00 in0.0 mm
09:20 PM 36.2°F2.3°C 15.2°F-9.3°C 42% Calm Calm -- 30.18 in1022.0 mb - 0.00 in0.0 mm 0.00 in0.0 mm
09:30 PM 36.0°F2.2°C 15.1°F-9.4°C 42% Calm Calm 1.2 mph1.9 kmh 30.19 in1022.4 mb - 0.00 in0.0 mm 0.00 in0.0 mm
09:40 PM 35.6°F2.0°C 15.3°F-9.3°C 43% Calm Calm -- 30.19 in1022.4 mb - 0.00 in0.0 mm 0.00 in0.0 mm
09:50 PM 35.3°F1.8°C 15.0°F-9.4°C 43% Calm Calm -- 30.19 in1022.4 mb - 0.00 in0.0 mm 0.00 in0.0 mm
10:00 PM 35.1°F1.7°C 15.3°F-9.3°C 44% Calm Calm -- 30.19 in1022.4 mb - 0.00 in0.0 mm 0.00 in0.0 mm
10:10 PM 35.1°F1.7°C 15.3°F-9.3°C 44% Calm Calm -- 30.19 in1022.4 mb - 0.00 in0.0 mm 0.00 in0.0 mm
10:20 PM 35.2°F1.8°C 15.4°F-9.2°C 44% Calm Calm -- 30.19 in1022.4 mb - 0.00 in0.0 mm 0.00 in0.0 mm
10:30 PM 35.0°F1.7°C 15.2°F-9.3°C 44% Calm Calm -- 30.19 in1022.4 mb - 0.00 in0.0 mm 0.00 in0.0 mm
10:40 PM 34.5°F1.4°C 15.3°F-9.3°C 45% Calm Calm -- 30.19 in1022.4 mb - 0.00 in0.0 mm 0.00 in0.0 mm
10:50 PM 34.2°F1.2°C 15.5°F-9.2°C 46% Calm Calm -- 30.19 in1022.4 mb - 0.00 in0.0 mm 0.00 in0.0 mm
11:00 PM 33.9°F1.1°C 15.3°F-9.3°C 46% Calm Calm -- 30.19 in1022.4 mb - 0.00 in0.0 mm 0.00 in0.0 mm
11:10 PM 33.6°F0.9°C 15.5°F-9.2°C 47% Calm Calm -- 30.19 in1022.4 mb - 0.00 in0.0 mm 0.00 in0.0 mm
11:20 PM 33.3°F0.7°C 15.7°F-9.1°C 48% 1.2 mph SSE1.9 kmh SSE 2.3 mph3.7 kmh 30.19 in1022.4 mb - 0.00 in0.0 mm 0.00 in0.0 mm
11:30 PM 33.1°F0.6°C 16.0°F-8.9°C 49% Calm Calm -- 30.19 in1022.4 mb - 0.00 in0.0 mm 0.00 in0.0 mm
11:40 PM 33.1°F0.6°C 16.5°F-8.6°C 50% Calm Calm -- 30.19 in1022.4 mb - 0.00 in0.0 mm 0.00 in0.0 mm
11:50 PM 33.4°F0.8°C 17.2°F-8.2°C 51% 1.2 mph SSE1.9 kmh SSE 2.3 mph3.7 kmh 30.19 in1022.4 mb - 0.00 in0.0 mm 0.00 in0.0 mm